createdAt,value
2018-05-27T03:47:46.209Z,90.4
2018-05-27T03:48:06.395Z,90.1
2018-05-27T03:48:26.648Z,90.4
2018-05-27T03:48:46.830Z,90.2
2018-05-27T03:49:07.025Z,90.4
2018-05-27T03:49:27.237Z,90
2018-05-27T03:49:47.494Z,89.8
2018-05-27T03:50:07.652Z,89.9
2018-05-27T03:50:27.869Z,89.8
2018-05-27T03:50:48.068Z,90.1
2018-05-27T03:51:08.278Z,90
2018-05-27T03:51:28.512Z,90.5
2018-05-27T03:51:48.696Z,90.5
2018-05-27T03:52:08.911Z,90
2018-05-27T03:52:29.183Z,90.1
2018-05-27T03:52:49.398Z,89.7
2018-05-27T04:02:20.671Z,89.7
2018-05-27T04:02:40.922Z,89.7
2018-05-27T04:03:01.108Z,89.6
2018-05-27T04:03:21.302Z,89.8
2018-05-27T04:03:41.552Z,89.7
2018-05-27T04:04:01.749Z,89.6
2018-05-27T04:04:21.953Z,89.5
2018-05-27T04:04:42.104Z,89.8
2018-05-27T04:05:02.251Z,89.9
2018-05-27T04:05:22.593Z,90.1
2018-05-27T04:05:42.793Z,89.8
2018-05-27T04:06:02.978Z,89.8
2018-05-27T04:06:23.151Z,89.8
2018-05-27T04:06:43.360Z,89
2018-05-27T04:07:43.367Z,89.8
2018-05-27T04:08:03.553Z,89.7
2018-05-27T04:08:23.739Z,89.7
2018-05-27T04:08:43.930Z,89.6
2018-05-27T04:09:04.155Z,89.9
2018-05-27T04:09:24.360Z,90.1
2018-05-27T04:10:51.896Z,89.7
2018-05-27T04:11:12.399Z,89.6
2018-05-27T04:11:32.607Z,89.7
2018-05-27T04:11:52.812Z,89.4
2018-05-27T04:12:12.986Z,89.7
2018-05-27T04:12:33.212Z,89.2
2018-05-27T04:12:53.376Z,89.3
2018-05-27T04:13:13.522Z,89.4
2018-05-27T04:13:33.721Z,89.4
2018-05-27T04:13:53.902Z,89.6
2018-05-27T04:16:13.889Z,88.8
2018-05-27T04:16:34.106Z,88.8
2018-05-27T04:17:40.643Z,88.7
2018-05-27T04:18:00.826Z,88.9
2018-05-27T04:19:07.276Z,89.1
2018-05-27T04:19:27.491Z,89
2018-05-27T04:20:21.626Z,88.7
2018-05-27T04:20:41.797Z,88.9
2018-05-27T04:21:01.993Z,89.6
2018-05-27T04:21:22.147Z,89.6
2018-05-27T04:21:42.327Z,89.6
2018-05-27T04:22:02.507Z,89.6
2018-05-27T04:22:22.631Z,89.8
2018-05-27T04:22:42.785Z,89.8
2018-05-27T04:23:02.934Z,89.4
2018-05-27T04:23:23.109Z,88.9
2018-05-27T04:23:43.276Z,89.2
2018-05-27T04:24:55.893Z,90
2018-05-27T04:25:16.046Z,89.6
2018-05-27T04:25:36.179Z,89.5
2018-05-27T04:25:56.314Z,89.2
2018-05-27T04:26:58.059Z,88.5
2018-05-27T04:27:18.260Z,88.6
2018-05-27T04:28:15.316Z,89.1
2018-05-27T04:28:35.782Z,89.2
2018-05-27T04:28:55.892Z,89.2
2018-05-27T04:29:16.054Z,89.4
2018-05-27T04:29:36.234Z,89.6
2018-05-27T04:29:56.376Z,88.9
2018-05-27T04:30:16.574Z,88.8
2018-05-27T04:30:36.744Z,88.8
2018-05-27T04:30:56.971Z,89
2018-05-27T04:31:41.595Z,88.9
2018-05-27T04:32:01.763Z,88.9
2018-05-27T04:32:21.896Z,89.2
2018-05-27T04:32:42.135Z,89
2018-05-27T04:33:50.390Z,89
2018-05-27T04:34:48.297Z,89.3
2018-05-27T04:35:39.907Z,89.2
2018-05-27T04:36:24.941Z,88.4
2018-05-27T04:36:45.158Z,88.5
2018-05-27T04:37:35.860Z,87.3
2018-05-27T04:37:56.014Z,87.4
2018-05-27T04:38:16.216Z,87.2
2018-05-27T04:38:36.390Z,86.9
2018-05-27T04:39:25.542Z,87.3
2018-05-27T04:39:45.673Z,87.7
2018-05-27T04:40:17.141Z,87.9
2018-05-27T04:40:37.320Z,88
2018-05-27T04:40:57.520Z,88.3
2018-05-27T04:41:17.784Z,88.3
2018-05-27T04:41:38.030Z,88.7
2018-05-27T04:41:58.271Z,88.5
2018-05-27T04:42:18.465Z,88.5
2018-05-27T04:42:38.709Z,88.6
2018-05-27T04:42:58.973Z,89.2
2018-05-27T04:43:19.282Z,89
2018-05-27T04:43:39.567Z,89
2018-05-27T04:43:59.809Z,88.5
2018-05-27T04:44:54.498Z,89
2018-05-27T04:45:14.684Z,89.3
2018-05-27T04:46:11.895Z,89.1
2018-05-27T04:46:32.127Z,88.6
2018-05-27T04:47:16.337Z,89.1
2018-05-27T04:47:36.496Z,89.1
2018-05-27T04:48:27.414Z,88.9
2018-05-27T04:48:47.599Z,89.2
2018-05-27T04:49:31.819Z,89.5
2018-05-27T04:49:52.090Z,89.2
2018-05-27T04:50:36.379Z,88.8
2018-05-27T04:50:56.551Z,88.4
2018-05-27T04:51:27.961Z,88.1
2018-05-27T04:53:17.554Z,88.8
2018-05-27T04:53:56.257Z,88.8
2018-05-27T04:54:41.420Z,88.9
2018-05-27T04:55:26.594Z,88.4
2018-05-27T04:56:05.300Z,88.7
2018-05-27T04:56:37.578Z,87.9
2018-05-27T04:58:01.413Z,88.4
2018-05-27T04:58:21.612Z,88.4
2018-05-27T04:58:59.495Z,87.7
2018-05-27T04:59:19.838Z,87.9
2018-05-27T05:00:04.014Z,88.8
2018-05-27T05:00:24.259Z,88.6
2018-05-27T05:01:08.597Z,88.6
2018-05-27T05:01:28.741Z,88.4
2018-05-27T05:02:13.078Z,88.7
2018-05-27T05:02:33.416Z,88.8
2018-05-27T05:02:54.021Z,88.8
2018-05-27T05:03:30.470Z,88.8
2018-05-27T05:03:50.608Z,88.8
2018-05-27T05:04:10.791Z,88.8
2018-05-27T05:04:31.062Z,88.6
2018-05-27T05:04:51.237Z,88
2018-05-27T05:05:11.498Z,88
2018-05-27T05:05:31.651Z,87.4
2018-05-27T05:05:51.854Z,87.3
2018-05-27T05:06:12.062Z,87.6
2018-05-27T05:06:32.273Z,88
2018-05-27T05:06:52.483Z,87.8
2018-05-27T05:07:12.693Z,87.9
2018-05-27T05:07:32.943Z,88.2
2018-05-27T05:07:53.160Z,88
2018-05-27T05:08:13.355Z,87.7
2018-05-27T05:08:33.536Z,87.8
2018-05-27T05:08:53.736Z,87.7
2018-05-27T05:09:13.961Z,87.5
2018-05-27T05:09:34.235Z,87.5
2018-05-27T05:09:54.403Z,88.1
2018-05-27T05:10:14.614Z,87.9
2018-05-27T05:10:34.782Z,87.6
2018-05-27T05:10:54.948Z,87.6
2018-05-27T05:11:15.152Z,87.6
2018-05-27T05:11:35.341Z,87.6
2018-05-27T05:11:55.587Z,86.9
2018-05-27T05:12:15.841Z,86.9
2018-05-27T05:12:36.141Z,86.4
2018-05-27T05:12:56.288Z,86.6
2018-05-27T05:13:16.454Z,86.3
2018-05-27T05:13:36.753Z,85.9
2018-05-27T05:13:56.930Z,86.6
2018-05-27T05:14:17.236Z,86
2018-05-27T05:14:37.376Z,86.1
2018-05-27T05:14:57.665Z,85.8
2018-05-27T05:15:17.828Z,86.7
2018-05-27T05:15:38.030Z,86.6
2018-05-27T05:15:58.137Z,86.1
2018-05-27T05:16:18.357Z,87.2
2018-05-27T05:16:38.585Z,86.8
2018-05-27T05:17:18.382Z,85.9
2018-05-27T05:17:38.574Z,85.5
2018-05-27T05:17:58.742Z,85.3
2018-05-27T05:18:18.917Z,85.4
2018-05-27T05:18:39.071Z,85.7
2018-05-27T05:18:59.254Z,85.1
2018-05-27T05:19:19.409Z,85.1
2018-05-27T05:19:39.567Z,85.1
2018-05-27T05:19:59.766Z,85.5
2018-05-27T05:20:19.994Z,85.5
2018-05-27T05:20:40.241Z,85.6
2018-05-27T05:21:00.402Z,85.5
2018-05-27T05:21:20.552Z,85.6
2018-05-27T05:21:40.724Z,85.4
2018-05-27T05:22:00.960Z,85.2
2018-05-27T05:22:21.146Z,84.9
2018-05-27T05:22:41.318Z,84.7
2018-05-27T05:23:01.553Z,84.4
2018-05-27T05:23:21.737Z,84.3
2018-05-27T05:23:41.934Z,84.9
2018-05-27T05:24:02.096Z,84.8
2018-05-27T05:24:22.322Z,84.6
2018-05-27T05:24:42.429Z,84.6
2018-05-27T05:25:02.600Z,84.9
2018-05-27T05:25:22.759Z,85.4
2018-05-27T05:25:42.904Z,85.3
2018-05-27T05:26:03.104Z,84.6
2018-05-27T05:26:23.252Z,85.5
2018-05-27T05:26:43.464Z,85.7
2018-05-27T05:29:38.274Z,85.1
2018-05-27T05:30:23.518Z,85.5
2018-05-27T05:31:02.231Z,85.1
2018-05-27T05:31:22.414Z,85.3
2018-05-27T05:31:53.822Z,85.5
2018-05-27T05:32:13.959Z,85.4
2018-05-27T05:32:34.129Z,85.7
2018-05-27T05:32:54.304Z,85.8
2018-05-27T05:33:14.441Z,86
2018-05-27T05:33:34.649Z,85.4
2018-05-27T05:33:54.823Z,85.7
2018-05-27T05:34:15.015Z,85.2
2018-05-27T05:34:35.157Z,85.5
2018-05-27T05:34:55.351Z,84.9
2018-05-27T05:35:15.524Z,85.4
2018-05-27T05:35:35.783Z,85.5
2018-05-27T05:35:55.971Z,85.4
2018-05-27T05:36:16.227Z,85.2
2018-05-27T05:36:36.435Z,84.9
2018-05-27T05:36:56.592Z,85.4
2018-05-27T05:37:16.781Z,85.3
2018-05-27T05:37:36.958Z,85.5
2018-05-27T05:37:57.094Z,85.7
2018-05-27T05:38:17.267Z,85.8
2018-05-27T05:38:37.434Z,85.6
2018-05-27T05:38:57.590Z,85.7
2018-05-27T05:39:17.781Z,85.1
2018-05-27T05:39:37.961Z,85.1
2018-05-27T05:39:58.106Z,85.1
2018-05-27T05:40:18.284Z,85
2018-05-27T05:40:38.455Z,85.3
2018-05-27T05:40:58.712Z,85.1
2018-05-27T05:41:18.882Z,85.5
2018-05-27T05:41:39.135Z,85.3
2018-05-27T05:41:59.304Z,85.5
2018-05-27T05:42:19.462Z,85.2
2018-05-27T05:42:39.645Z,84.9
2018-05-27T05:42:59.876Z,84.6
2018-05-27T05:43:20.055Z,83.7
2018-05-27T05:43:40.214Z,84.2
2018-05-27T05:44:00.363Z,84.4
2018-05-27T05:44:20.543Z,85.1
2018-05-27T05:44:40.695Z,84.9
2018-05-27T05:45:14.542Z,84.3
2018-05-27T06:00:00.029Z,85.5
2018-05-27T06:01:16.039Z,85.9
2018-05-27T06:02:01.270Z,85.6
2018-05-27T06:02:39.953Z,85.3
2018-05-27T06:03:00.175Z,85.8
2018-05-27T06:03:44.534Z,85.5
2018-05-27T06:04:04.700Z,86.2
2018-05-27T06:04:24.898Z,86.2
2018-05-27T06:05:21.237Z,85.6
2018-05-27T06:05:41.437Z,85.4
2018-05-27T06:06:01.570Z,85.8
2018-05-27T06:06:21.886Z,85.2
2018-05-27T06:06:42.119Z,85.3
2018-05-27T06:07:24.867Z,85.2
2018-05-27T06:07:45.076Z,85
2018-05-27T06:08:05.248Z,85.5
2018-05-27T06:08:25.457Z,85.1
2018-05-27T06:08:45.647Z,84.9
2018-05-27T06:09:05.816Z,85
2018-05-27T06:09:26.028Z,84.9
2018-05-27T06:09:46.178Z,84.5
2018-05-27T06:10:06.364Z,84.3
2018-05-27T06:10:26.527Z,84.1
2018-05-27T06:10:46.656Z,84.1
2018-05-27T06:11:06.846Z,83.9
2018-05-27T06:11:27.004Z,84.3
2018-05-27T06:11:47.265Z,84.4
2018-05-27T06:12:07.451Z,83.8
2018-05-27T06:12:27.646Z,84
2018-05-27T06:12:47.857Z,83.8
2018-05-27T06:13:08.070Z,84
2018-05-27T06:13:28.325Z,83.8
2018-05-27T06:13:48.445Z,84
2018-05-27T06:14:08.628Z,84.1
2018-05-27T06:14:28.765Z,84.3
2018-05-27T06:14:48.927Z,84.3
2018-05-27T06:15:54.450Z,83.9
2018-05-27T06:16:14.614Z,84.5
2018-05-27T06:16:34.846Z,84.2
2018-05-27T06:16:55.032Z,84.5
2018-05-27T06:17:15.271Z,85.6
2018-05-27T06:17:35.473Z,85.3
2018-05-27T06:17:55.660Z,85.1
2018-05-27T06:18:15.827Z,84.6
2018-05-27T06:18:36.076Z,84.6
2018-05-27T06:19:59.594Z,84.2
2018-05-27T06:20:57.612Z,84
2018-05-27T06:21:55.740Z,84
2018-05-27T06:22:53.858Z,83.7
2018-05-27T06:24:04.854Z,84
2018-05-27T07:11:12.248Z,84.3
2018-05-27T07:14:19.549Z,85
2018-05-27T07:16:02.272Z,85
2018-05-27T07:17:55.311Z,85
2018-05-27T07:19:37.018Z,84.6
2018-05-27T07:21:28.117Z,85.2
2018-05-27T07:23:16.233Z,84.5
2018-05-27T07:23:36.484Z,84
2018-05-27T07:25:13.452Z,84.7
2018-05-27T07:26:16.137Z,84.5
2018-05-27T07:26:36.372Z,84.5
2018-05-27T07:27:36.999Z,83.9
2018-05-27T07:27:57.290Z,84.2
2018-05-27T07:29:21.608Z,83.9
2018-05-27T07:30:16.751Z,84
2018-05-27T07:31:09.013Z,84.7
2018-05-27T07:31:53.316Z,84.3
2018-05-27T07:32:13.609Z,83.9
2018-05-27T07:33:04.485Z,83.7
2018-05-27T07:33:24.688Z,83.6
2018-05-27T07:33:56.158Z,84
2018-05-27T07:34:16.517Z,83.8
2018-05-27T07:35:07.145Z,84
2018-05-27T07:35:27.538Z,84.1
2018-05-27T07:36:16.852Z,83.1
2018-05-27T07:36:37.115Z,83.4
2018-05-27T07:36:57.399Z,83.4
2018-05-27T07:37:17.718Z,83.9
2018-05-27T07:37:38.024Z,84.2
2018-05-27T07:37:58.299Z,84.2
2018-05-27T07:38:18.502Z,84
2018-05-27T07:38:38.682Z,84.1
2018-05-27T07:38:58.973Z,84.6
2018-05-27T07:39:38.378Z,84.4
2018-05-27T07:39:58.648Z,84
2018-05-27T07:40:18.844Z,84.1
2018-05-27T07:40:39.179Z,84.5
2018-05-27T07:40:59.296Z,85.1
2018-05-27T07:41:19.526Z,84.6
2018-05-27T07:41:39.756Z,85.2
2018-05-27T07:41:59.961Z,84.6
2018-05-27T07:42:20.163Z,83.8
2018-05-27T07:42:40.423Z,83.5
2018-05-27T07:43:00.884Z,82.8
2018-05-27T07:43:21.420Z,83.1
2018-05-27T07:43:41.984Z,82.8
2018-05-27T07:44:02.522Z,82.6
2018-05-27T07:44:23.011Z,83
2018-05-27T07:44:43.600Z,83.1
2018-05-27T07:45:04.161Z,83.5
2018-05-27T07:45:24.462Z,83.4
2018-05-27T07:45:44.904Z,83.4
2018-05-27T07:46:05.429Z,83.6
2018-05-27T07:46:26.091Z,83.6
2018-05-27T07:46:46.537Z,83.7
2018-05-27T07:47:06.919Z,83.6
2018-05-27T07:47:27.508Z,83.4
2018-05-27T07:47:47.971Z,83.5
2018-05-27T07:48:08.437Z,83.5
2018-05-27T07:48:28.858Z,82.7
2018-05-27T07:48:49.192Z,82.2
2018-05-27T07:49:09.681Z,81.8
2018-05-27T07:49:30.164Z,82.5
2018-05-27T07:49:50.658Z,82.7
2018-05-27T07:50:11.150Z,82.2
2018-05-27T07:50:31.600Z,81.8
2018-05-27T07:50:52.144Z,81.5
2018-05-27T07:51:12.658Z,81.4
2018-05-27T07:51:33.185Z,81.6
2018-05-27T07:51:53.793Z,81.8
2018-05-27T07:52:14.229Z,81
2018-05-27T07:52:34.758Z,81.3
2018-05-27T07:52:55.323Z,81
2018-05-27T07:53:15.739Z,81.2
2018-05-27T07:53:36.192Z,81.6
2018-05-27T07:53:56.649Z,81.7
2018-05-27T07:54:17.202Z,81.4
2018-05-27T07:54:37.681Z,81.6
2018-05-27T07:54:58.041Z,82.4
2018-05-27T07:55:18.422Z,81.9
2018-05-27T07:55:38.985Z,81.6
2018-05-27T07:55:59.438Z,82
2018-05-27T07:56:19.789Z,82.4
2018-05-27T07:56:40.365Z,82.1
2018-05-27T07:57:00.812Z,82.2
2018-05-27T07:57:21.310Z,82.4
2018-05-27T07:57:41.797Z,82.2
2018-05-27T07:58:02.193Z,82.2
2018-05-27T07:58:22.730Z,81.7
2018-05-27T07:58:43.181Z,81.7
2018-05-27T07:59:03.676Z,81.6
2018-05-27T07:59:24.247Z,82
2018-05-27T07:59:44.591Z,82.2
2018-05-27T08:00:05.022Z,83
2018-05-27T08:00:25.513Z,82.7
2018-05-27T08:00:46.010Z,81.8
2018-05-27T08:01:06.497Z,82.2
2018-05-27T08:01:27.016Z,81.4
2018-05-27T08:01:47.469Z,82.1
2018-05-27T08:02:07.898Z,81.8
2018-05-27T08:02:28.208Z,82.3
2018-05-27T08:02:48.661Z,81.8
2018-05-27T08:03:09.228Z,82
2018-05-27T08:03:29.765Z,81.5
2018-05-27T08:03:50.274Z,81.6
2018-05-27T08:04:10.852Z,81.3
2018-05-27T08:04:31.377Z,81.1
2018-05-27T08:04:51.969Z,81
2018-05-27T08:05:12.370Z,81.4
2018-05-27T08:05:32.817Z,81.2
2018-05-27T08:05:53.248Z,81.5
2018-05-27T08:06:13.928Z,81.2
2018-05-27T08:06:34.268Z,81.2
2018-05-27T08:06:54.673Z,81.3
2018-05-27T08:07:15.196Z,81.6
2018-05-27T08:07:35.646Z,81.2
2018-05-27T08:07:56.102Z,81
2018-05-27T08:08:16.500Z,80.8
2018-05-27T08:08:36.967Z,80.4
2018-05-27T08:08:57.468Z,80.7
2018-05-27T08:09:17.929Z,81
2018-05-27T08:09:38.441Z,80.6
2018-05-27T08:09:58.861Z,80.5
2018-05-27T08:10:19.358Z,80.6
2018-05-27T08:10:39.829Z,80.4
2018-05-27T08:11:00.287Z,80.4
2018-05-27T08:11:20.637Z,80.6
2018-05-27T08:11:41.087Z,81.6
2018-05-27T08:12:01.512Z,81.1
2018-05-27T08:12:21.905Z,80.7
2018-05-27T08:12:42.169Z,81.4
2018-05-27T08:13:02.509Z,81
2018-05-27T08:13:22.816Z,81
2018-05-27T08:13:43.153Z,80.6
2018-05-27T08:14:03.517Z,81.2
2018-05-27T08:14:23.959Z,80.9
2018-05-27T08:14:44.344Z,80.9
2018-05-27T08:15:04.722Z,81.3
2018-05-27T08:15:25.119Z,81.7
2018-05-27T08:15:45.441Z,81.3
2018-05-27T08:16:05.884Z,81.4
2018-05-27T08:16:26.243Z,81.2
2018-05-27T08:16:46.633Z,81.4
2018-05-27T08:17:07.024Z,81.4
2018-05-27T08:17:27.397Z,81.2
2018-05-27T08:17:47.749Z,80.9
2018-05-27T08:18:08.187Z,80.8
2018-05-27T08:18:28.617Z,80.9
2018-05-27T08:18:48.963Z,80.5
2018-05-27T08:19:09.475Z,80.3
2018-05-27T08:19:29.842Z,80.8
2018-05-27T08:19:50.360Z,80.8
2018-05-27T08:20:11.006Z,81.4
2018-05-27T08:20:31.472Z,81.8
2018-05-27T08:20:52.034Z,81.4
2018-05-27T08:21:12.385Z,81
2018-05-27T08:21:32.922Z,80.7
2018-05-27T08:21:53.307Z,81.7
2018-05-27T08:22:13.607Z,81.6
2018-05-27T08:22:34.045Z,81.7
2018-05-27T08:22:54.454Z,81.8
2018-05-27T08:23:14.801Z,82.3
2018-05-27T08:23:35.190Z,82.5
2018-05-27T08:23:55.596Z,82
2018-05-27T08:24:16.075Z,82.3
2018-05-27T08:24:36.737Z,82.6
2018-05-27T08:24:57.240Z,81.6
2018-05-27T08:25:17.632Z,81.9
2018-05-27T08:25:38.150Z,81.8
2018-05-27T08:25:58.671Z,81.5
2018-05-27T08:26:19.126Z,81.5
2018-05-27T08:26:39.637Z,81.8
2018-05-27T08:26:59.991Z,81.4
2018-05-27T08:27:20.545Z,80.5
2018-05-27T08:27:40.926Z,80.4
2018-05-27T08:28:01.356Z,80.7
2018-05-27T08:28:21.786Z,80.6
2018-05-27T08:28:42.213Z,80.5
2018-05-27T08:29:02.647Z,80.8
2018-05-27T08:29:22.962Z,80.4
2018-05-27T08:29:43.532Z,80.7
2018-05-27T08:30:03.939Z,80.8
2018-05-27T08:30:24.395Z,81.2
2018-05-27T08:30:44.864Z,81.1
2018-05-27T08:31:05.314Z,81
2018-05-27T08:31:25.773Z,80.8
2018-05-27T08:31:46.343Z,80.6
2018-05-27T08:32:06.866Z,80.5
2018-05-27T08:32:27.147Z,80.9
2018-05-27T08:32:47.492Z,80.7
2018-05-27T08:33:08.032Z,79.8
2018-05-27T08:33:28.452Z,80
2018-05-27T08:33:48.988Z,79.8
2018-05-27T08:34:09.556Z,79.8
2018-05-27T08:34:29.983Z,79.1
2018-05-27T08:34:50.415Z,79.3
2018-05-27T08:35:10.921Z,79.7
2018-05-27T08:35:31.337Z,79.8
2018-05-27T08:35:51.848Z,79.7
2018-05-27T08:36:12.325Z,79.8
2018-05-27T08:36:32.731Z,79.7
2018-05-27T08:36:53.107Z,79.7
2018-05-27T08:37:13.647Z,79.1
2018-05-27T08:37:34.311Z,78.2
2018-05-27T08:37:54.741Z,78.7
2018-05-27T08:38:15.252Z,78.7
2018-05-27T08:38:35.514Z,79
2018-05-27T08:38:55.928Z,78.8
2018-05-27T08:39:16.425Z,78.1
2018-05-27T08:39:36.818Z,78
2018-05-27T08:39:57.249Z,78
2018-05-27T08:40:17.714Z,78.4
2018-05-27T08:40:38.356Z,78.3
2018-05-27T08:40:58.905Z,77.8
2018-05-27T08:41:19.417Z,77.9
2018-05-27T08:41:39.819Z,78.2
2018-05-27T08:42:00.341Z,77.4
2018-05-27T08:42:20.625Z,78.8
2018-05-27T08:42:40.964Z,77.7
2018-05-27T08:43:01.593Z,77.3
2018-05-27T08:43:22.038Z,77
2018-05-27T08:43:42.511Z,76
2018-05-27T08:44:03.057Z,76.7
2018-05-27T08:44:23.591Z,77.6
2018-05-27T08:44:44.056Z,77.8
2018-05-27T08:45:04.591Z,78.1
2018-05-27T08:45:25.088Z,77.9
2018-05-27T08:45:45.487Z,77.5
2018-05-27T08:46:05.849Z,77.7
2018-05-27T08:46:26.371Z,77.6
2018-05-27T08:46:47.061Z,77.8
2018-05-27T08:47:07.572Z,77.6
2018-05-27T08:47:28.179Z,76.9
2018-05-27T08:47:49.532Z,76.9
2018-05-27T08:48:10.075Z,76.4
2018-05-27T08:48:30.658Z,75.8
2018-05-27T08:48:51.482Z,75
2018-05-27T08:49:12.267Z,74.8
2018-05-27T08:49:34.582Z,75.2
2018-05-27T08:49:57.977Z,75.4
2018-05-27T08:50:18.400Z,75
2018-05-27T08:50:38.896Z,75.2
2018-05-27T08:50:59.416Z,74.9
2018-05-27T08:51:19.906Z,75.2
2018-05-27T08:51:40.422Z,75.5
2018-05-27T08:52:01.039Z,76
2018-05-27T08:52:21.561Z,75.3
2018-05-27T08:52:42.032Z,76
2018-05-27T08:53:02.557Z,76
2018-05-27T08:53:23.344Z,76.3
2018-05-27T08:53:43.744Z,75.1
2018-05-27T08:54:04.415Z,74.8
2018-05-27T08:54:24.734Z,75.7
2018-05-27T08:54:45.230Z,76.4
2018-05-27T08:55:05.552Z,75.5
2018-05-27T08:55:26.135Z,74
2018-05-27T08:55:46.487Z,74.1
2018-05-27T08:56:06.892Z,74.1
2018-05-27T08:56:27.466Z,75
2018-05-27T08:56:48.038Z,75.8
2018-05-27T08:57:08.650Z,75
2018-05-27T08:57:29.444Z,74.2
2018-05-27T08:57:50.293Z,73.9
2018-05-27T08:58:10.757Z,73.1
2018-05-27T08:58:31.523Z,73.2
2018-05-27T08:58:52.212Z,73
2018-05-27T08:59:13.115Z,72.6
2018-05-27T08:59:33.796Z,72.4
2018-05-27T08:59:54.447Z,73.2
2018-05-27T09:00:15.000Z,73.5
2018-05-27T09:00:35.470Z,73.1
2018-05-27T09:00:55.822Z,73.3
2018-05-27T09:01:16.424Z,73.7
2018-05-27T09:01:36.922Z,73.8
2018-05-27T09:01:57.396Z,73.4
2018-05-27T09:02:17.982Z,74
2018-05-27T09:02:38.550Z,73.6
2018-05-27T09:02:59.123Z,74.2
2018-05-27T09:03:19.587Z,74.6
2018-05-27T09:03:40.092Z,74.4
2018-05-27T09:04:00.678Z,73.6
2018-05-27T09:04:21.317Z,71.8
2018-05-27T09:04:41.890Z,72.5
2018-05-27T09:05:02.343Z,72.5
2018-05-27T09:05:22.976Z,72.1
2018-05-27T09:05:43.448Z,71
2018-05-27T09:06:03.828Z,71
2018-05-27T09:06:24.173Z,70.7
2018-05-27T09:06:44.855Z,70.3
2018-05-27T09:07:05.283Z,71.5
2018-05-27T09:07:25.792Z,71.5
2018-05-27T09:07:46.299Z,72.7
2018-05-27T09:08:07.040Z,72.5
2018-05-27T09:08:27.582Z,72.8
2018-05-27T09:08:47.992Z,72.7
2018-05-27T09:09:08.481Z,74
2018-05-27T09:09:28.986Z,73.5
2018-05-27T09:09:49.593Z,71.9
2018-05-27T09:10:10.372Z,69
2018-05-27T09:10:30.983Z,68.7
2018-05-27T09:10:51.700Z,67.9
2018-05-27T09:11:12.404Z,68.9
2018-05-27T09:11:33.041Z,69.6
2018-05-27T09:11:53.724Z,70.1
2018-05-27T09:12:15.229Z,70.5
2018-05-27T09:12:35.883Z,70.3
2018-05-27T09:12:56.389Z,70.5
2018-05-27T09:13:16.944Z,70
2018-05-27T09:13:37.817Z,70.1
2018-05-27T09:13:58.611Z,71.5
2018-05-27T09:14:19.331Z,71.3
2018-05-27T09:14:39.921Z,69.6
2018-05-27T09:15:00.663Z,69.5
2018-05-27T09:15:21.432Z,68.6
2018-05-27T09:15:42.866Z,69
2018-05-27T09:16:03.297Z,69.5
2018-05-27T09:16:23.753Z,69.5
2018-05-27T09:16:44.239Z,70
2018-05-27T09:17:04.787Z,70.7
2018-05-27T09:17:25.291Z,70.8
2018-05-27T09:17:45.860Z,71
2018-05-27T09:18:06.565Z,71.5
2018-05-27T09:18:27.189Z,72.2
2018-05-27T09:18:47.913Z,72
2018-05-27T09:19:08.616Z,71.7
2018-05-27T09:19:29.110Z,71.8
2018-05-27T09:19:49.610Z,72
2018-05-27T09:20:10.009Z,71.9
2018-05-27T09:20:30.635Z,72.1
2018-05-27T09:20:51.140Z,72
2018-05-27T09:21:11.820Z,71.7
2018-05-27T09:21:32.295Z,72.4
2018-05-27T09:21:52.787Z,71.8
2018-05-27T09:22:13.219Z,72.4
2018-05-27T09:22:33.853Z,71.9
2018-05-27T09:22:54.349Z,72.2
2018-05-27T09:23:14.894Z,73
2018-05-27T09:23:35.483Z,72.5
2018-05-27T09:23:55.998Z,73.1
2018-05-27T09:24:16.502Z,73
2018-05-27T09:24:37.040Z,72.3
2018-05-27T09:24:57.546Z,72.1
2018-05-27T09:25:18.287Z,72.1
2018-05-27T09:25:38.861Z,71.6
2018-05-27T09:25:59.497Z,71.9
2018-05-27T09:26:20.261Z,72.3
2018-05-27T09:26:40.742Z,72.4
2018-05-27T09:27:01.452Z,71.2
2018-05-27T09:27:22.193Z,70.2
2018-05-27T09:27:42.724Z,70.6
2018-05-27T09:28:03.212Z,70.4
2018-05-27T09:28:23.777Z,70.7
2018-05-27T09:28:44.272Z,71.1
2018-05-27T09:29:04.772Z,70.9
2018-05-27T09:29:25.331Z,71
2018-05-27T09:29:45.852Z,70.1
2018-05-27T09:30:06.379Z,70.4
2018-05-27T09:30:26.731Z,69.6
2018-05-27T09:30:47.120Z,68.7
2018-05-27T09:31:07.610Z,67.9
2018-05-27T09:31:28.025Z,68
2018-05-27T09:31:48.668Z,66.4
2018-05-27T09:32:09.409Z,66.9
2018-05-27T09:32:30.052Z,66.9
2018-05-27T09:32:50.605Z,67.1
2018-05-27T09:33:11.168Z,67.2
2018-05-27T09:33:31.751Z,67.7
2018-05-27T09:33:52.270Z,67.4
2018-05-27T09:34:12.818Z,67.2
2018-05-27T09:34:33.525Z,66.3
2018-05-27T09:34:54.098Z,66.4
2018-05-27T09:35:14.590Z,66.9
2018-05-27T09:35:35.272Z,67.5
2018-05-27T09:35:56.034Z,67.9
2018-05-27T09:36:16.803Z,68.2
2018-05-27T09:36:37.653Z,66.9
2018-05-27T09:36:58.468Z,67.2
2018-05-27T09:37:18.967Z,67.1
2018-05-27T09:37:39.668Z,67.1
2018-05-27T09:38:00.295Z,66.9
2018-05-27T09:38:20.801Z,67.1
2018-05-27T09:38:41.296Z,67.1
2018-05-27T09:39:02.142Z,66.9
2018-05-27T09:39:22.933Z,67.1
2018-05-27T09:39:43.513Z,66.9
2018-05-27T09:40:04.410Z,67.7
2018-05-27T09:40:24.985Z,67.7
2018-05-27T09:40:45.703Z,67.7
2018-05-27T09:41:06.290Z,66.9
2018-05-27T09:41:26.985Z,66.9
2018-05-27T09:41:47.426Z,67.6
2018-05-27T09:42:08.205Z,67.1
2018-05-27T09:42:28.947Z,67.3
2018-05-27T09:42:49.348Z,67
2018-05-27T09:43:10.107Z,66.3
2018-05-27T09:43:30.920Z,65.6
2018-05-27T09:43:51.580Z,66
2018-05-27T09:44:12.561Z,65.9
2018-05-27T09:44:33.421Z,65.4
2018-05-27T09:44:53.908Z,65.6
2018-05-27T09:45:14.570Z,65.9
2018-05-27T09:45:35.541Z,66.2
2018-05-27T09:45:56.205Z,65.8
2018-05-27T09:46:16.827Z,65.2
2018-05-27T09:46:37.508Z,64.6
2018-05-27T09:46:58.010Z,65.1
2018-05-27T09:47:18.668Z,65.2
2018-05-27T09:47:39.139Z,65.3
2018-05-27T09:47:59.992Z,65.2
2018-05-27T09:48:20.598Z,64.6
2018-05-27T09:48:41.945Z,64.4
2018-05-27T09:49:02.598Z,64.1
2018-05-27T09:49:23.031Z,63.6
2018-05-27T09:49:43.544Z,63.3
2018-05-27T09:50:03.955Z,63.5
2018-05-27T09:50:24.589Z,62.7
2018-05-27T09:50:45.005Z,62.8
2018-05-27T09:51:05.498Z,62
2018-05-27T09:51:26.103Z,62.1
2018-05-27T09:51:46.558Z,62.1
2018-05-27T09:52:06.891Z,61.9
2018-05-27T09:52:27.480Z,61.2
2018-05-27T09:52:47.964Z,61.9
2018-05-27T09:53:08.561Z,62.2
2018-05-27T09:53:29.071Z,62.6
2018-05-27T09:53:49.613Z,62.3
2018-05-27T09:54:10.110Z,63.1
2018-05-27T09:54:30.625Z,63
2018-05-27T09:54:51.275Z,63.3
2018-05-27T09:55:12.039Z,63
2018-05-27T09:55:32.586Z,64.2
2018-05-27T09:55:53.272Z,64.1
2018-05-27T09:56:13.806Z,64.3
2018-05-27T09:56:34.169Z,64.7
2018-05-27T09:56:54.613Z,64.9
2018-05-27T09:57:15.134Z,64.5
2018-05-27T09:57:36.544Z,64.3
2018-05-27T09:57:57.322Z,64.2
2018-05-27T09:58:17.975Z,63.4
2018-05-27T09:58:39.614Z,62.7
2018-05-27T09:59:00.100Z,62.2
2018-05-27T09:59:20.695Z,62.5
2018-05-27T09:59:41.183Z,62.7
2018-05-27T10:00:01.773Z,62.7
2018-05-27T10:00:22.252Z,62.5
2018-05-27T10:00:42.711Z,62
2018-05-27T10:01:03.168Z,62.8
2018-05-27T10:01:24.419Z,62.5
2018-05-27T10:01:44.861Z,62.5
2018-05-27T10:02:05.312Z,62.4
2018-05-27T10:02:25.798Z,62.5
2018-05-27T10:02:46.339Z,62
2018-05-27T10:03:07.028Z,62.7
2018-05-27T10:03:27.373Z,63.2
2018-05-27T10:03:47.816Z,62.8
2018-05-27T10:04:08.416Z,62.3
2018-05-27T10:04:28.913Z,63.5
2018-05-27T10:04:49.528Z,64.2
2018-05-27T10:05:10.057Z,64.3
2018-05-27T10:05:30.581Z,64.3
2018-05-27T10:05:51.065Z,64.6
2018-05-27T10:06:11.602Z,64.8
2018-05-27T10:06:32.131Z,64.3
2018-05-27T10:06:52.648Z,64
2018-05-27T10:07:13.107Z,63.1
2018-05-27T10:07:33.527Z,63.3
2018-05-27T10:07:53.955Z,63.9
2018-05-27T10:08:14.424Z,63.2
2018-05-27T10:08:34.922Z,63.3
2018-05-27T10:08:55.522Z,63.8
2018-05-27T10:09:16.021Z,63.2
2018-05-27T10:09:36.480Z,63.4
2018-05-27T10:09:56.971Z,63.3
2018-05-27T10:10:17.551Z,63.3
2018-05-27T10:10:37.998Z,63.1
2018-05-27T10:10:58.329Z,63.4
2018-05-27T10:11:18.893Z,63.1
2018-05-27T10:11:39.398Z,62.1
2018-05-27T10:11:59.843Z,62.4
2018-05-27T10:12:20.341Z,62.2
2018-05-27T10:12:40.880Z,61.9
2018-05-27T10:13:01.426Z,62.5
2018-05-27T10:13:21.849Z,62.5
2018-05-27T10:13:42.212Z,62.5
2018-05-27T10:14:02.908Z,62.3
2018-05-27T10:14:23.500Z,62.6
2018-05-27T10:14:43.972Z,62.5
2018-05-27T10:15:04.377Z,62.1
2018-05-27T10:15:24.816Z,62.3
2018-05-27T10:15:45.160Z,64
2018-05-27T10:16:05.758Z,62.7
2018-05-27T10:16:26.247Z,62.4
2018-05-27T10:16:46.808Z,62.3
2018-05-27T10:17:07.539Z,62.4
2018-05-27T10:17:29.160Z,62.8
2018-05-27T10:17:49.712Z,62.8
2018-05-27T10:18:10.295Z,62.5
2018-05-27T10:18:31.130Z,63
2018-05-27T10:18:51.672Z,63.2
2018-05-27T10:19:12.142Z,62.8
2018-05-27T10:19:32.762Z,62.8
2018-05-27T10:19:53.429Z,62.6
2018-05-27T10:20:13.906Z,61
2018-05-27T10:20:34.472Z,60.3
2018-05-27T10:20:54.901Z,59.6
2018-05-27T10:21:15.312Z,59.5
2018-05-27T10:21:35.814Z,60.1